sensor_id;sensor_type;location;lat;lon;timestamp;P1;durP1;ratioP1;P2;durP2;ratioP2
11957;SDS011;6039;52.576;13.348;2023-05-10T00:03:42;5.97;;;4.53;;
11957;SDS011;6039;52.576;13.348;2023-05-10T00:08:46;8.13;;;4.17;;
11957;SDS011;6039;52.576;13.348;2023-05-10T00:13:53;5.57;;;4.23;;
11957;SDS011;6039;52.576;13.348;2023-05-10T00:18:57;5.40;;;4.33;;
11957;SDS011;6039;52.576;13.348;2023-05-10T00:24:01;5.97;;;4.27;;
11957;SDS011;6039;52.576;13.348;2023-05-10T00:29:07;5.67;;;4.13;;
11957;SDS011;6039;52.576;13.348;2023-05-10T00:34:11;9.63;;;4.47;;
11957;SDS011;6039;52.576;13.348;2023-05-10T00:39:15;5.93;;;4.37;;
11957;SDS011;6039;52.576;13.348;2023-05-10T00:44:22;7.13;;;4.60;;
11957;SDS011;6039;52.576;13.348;2023-05-10T00:49:26;5.60;;;4.33;;
11957;SDS011;6039;52.576;13.348;2023-05-10T00:54:30;5.57;;;4.07;;
11957;SDS011;6039;52.576;13.348;2023-05-10T00:59:36;6.20;;;4.30;;
11957;SDS011;6039;52.576;13.348;2023-05-10T01:04:40;6.37;;;4.40;;
11957;SDS011;6039;52.576;13.348;2023-05-10T01:09:45;5.63;;;4.47;;
11957;SDS011;6039;52.576;13.348;2023-05-10T01:14:52;6.47;;;4.60;;
11957;SDS011;6039;52.576;13.348;2023-05-10T01:19:57;7.23;;;4.80;;
11957;SDS011;6039;52.576;13.348;2023-05-10T01:36:01;6.50;;;4.57;;
11957;SDS011;6039;52.576;13.348;2023-05-10T01:41:13;7.37;;;4.73;;
11957;SDS011;6039;52.576;13.348;2023-05-10T01:46:20;5.93;;;4.17;;
11957;SDS011;6039;52.576;13.348;2023-05-10T01:51:35;5.80;;;4.20;;
11957;SDS011;6039;52.576;13.348;2023-05-10T01:56:41;7.50;;;4.40;;
11957;SDS011;6039;52.576;13.348;2023-05-10T02:01:46;5.80;;;4.33;;
11957;SDS011;6039;52.576;13.348;2023-05-10T02:06:53;6.27;;;4.30;;
11957;SDS011;6039;52.576;13.348;2023-05-10T02:11:59;5.90;;;4.30;;
11957;SDS011;6039;52.576;13.348;2023-05-10T02:17:05;8.40;;;4.13;;
11957;SDS011;6039;52.576;13.348;2023-05-10T02:22:12;5.70;;;4.23;;
11957;SDS011;6039;52.576;13.348;2023-05-10T02:27:17;5.90;;;4.23;;
11957;SDS011;6039;52.576;13.348;2023-05-10T02:32:21;6.03;;;4.27;;
11957;SDS011;6039;52.576;13.348;2023-05-10T02:37:29;5.70;;;4.20;;
11957;SDS011;6039;52.576;13.348;2023-05-10T02:42:35;5.57;;;4.30;;
11957;SDS011;6039;52.576;13.348;2023-05-10T02:47:40;10.83;;;4.60;;
11957;SDS011;6039;52.576;13.348;2023-05-10T02:52:47;6.03;;;4.30;;
11957;SDS011;6039;52.576;13.348;2023-05-10T02:58:00;8.20;;;4.40;;
11957;SDS011;6039;52.576;13.348;2023-05-10T03:03:04;5.30;;;3.83;;
11957;SDS011;6039;52.576;13.348;2023-05-10T03:08:10;6.07;;;3.93;;
11957;SDS011;6039;52.576;13.348;2023-05-10T03:13:16;6.50;;;4.20;;
11957;SDS011;6039;52.576;13.348;2023-05-10T03:18:28;6.90;;;4.30;;
11957;SDS011;6039;52.576;13.348;2023-05-10T03:23:39;5.03;;;3.80;;
11957;SDS011;6039;52.576;13.348;2023-05-10T03:28:44;5.23;;;3.57;;
11957;SDS011;6039;52.576;13.348;2023-05-10T03:33:49;4.70;;;3.67;;
11957;SDS011;6039;52.576;13.348;2023-05-10T03:38:57;5.20;;;3.43;;
11957;SDS011;6039;52.576;13.348;2023-05-10T03:44:01;4.77;;;3.40;;
11957;SDS011;6039;52.576;13.348;2023-05-10T03:49:05;4.80;;;3.60;;
11957;SDS011;6039;52.576;13.348;2023-05-10T03:54:11;8.40;;;4.30;;
11957;SDS011;6039;52.576;13.348;2023-05-10T03:59:15;5.50;;;3.70;;
11957;SDS011;6039;52.576;13.348;2023-05-10T04:04:20;5.80;;;3.80;;
11957;SDS011;6039;52.576;13.348;2023-05-10T04:09:26;5.80;;;4.00;;
11957;SDS011;6039;52.576;13.348;2023-05-10T04:14:30;5.53;;;3.90;;
11957;SDS011;6039;52.576;13.348;2023-05-10T04:19:34;5.37;;;3.70;;
11957;SDS011;6039;52.576;13.348;2023-05-10T04:24:41;5.57;;;3.70;;
11957;SDS011;6039;52.576;13.348;2023-05-10T04:29:45;7.93;;;3.60;;
11957;SDS011;6039;52.576;13.348;2023-05-10T04:34:49;4.93;;;3.60;;
11957;SDS011;6039;52.576;13.348;2023-05-10T04:39:56;4.70;;;3.67;;
11957;SDS011;6039;52.576;13.348;2023-05-10T04:45:00;5.93;;;4.13;;
11957;SDS011;6039;52.576;13.348;2023-05-10T04:50:04;5.10;;;3.43;;
11957;SDS011;6039;52.576;13.348;2023-05-10T04:55:12;6.00;;;3.97;;
11957;SDS011;6039;52.576;13.348;2023-05-10T05:00:16;5.13;;;3.37;;
11957;SDS011;6039;52.576;13.348;2023-05-10T05:05:20;5.87;;;3.80;;
11957;SDS011;6039;52.576;13.348;2023-05-10T05:10:27;5.07;;;3.53;;
11957;SDS011;6039;52.576;13.348;2023-05-10T05:15:31;5.03;;;3.50;;
11957;SDS011;6039;52.576;13.348;2023-05-10T05:20:35;5.00;;;3.27;;
11957;SDS011;6039;52.576;13.348;2023-05-10T05:25:41;6.77;;;3.50;;
11957;SDS011;6039;52.576;13.348;2023-05-10T05:30:45;4.03;;;3.23;;
11957;SDS011;6039;52.576;13.348;2023-05-10T05:35:49;5.87;;;3.40;;
11957;SDS011;6039;52.576;13.348;2023-05-10T05:40:56;5.00;;;3.00;;
11957;SDS011;6039;52.576;13.348;2023-05-10T05:46:00;4.60;;;3.43;;
11957;SDS011;6039;52.576;13.348;2023-05-10T05:51:04;4.93;;;3.17;;
11957;SDS011;6039;52.576;13.348;2023-05-10T05:56:11;4.60;;;3.00;;
11957;SDS011;6039;52.576;13.348;2023-05-10T06:01:15;5.17;;;3.10;;
11957;SDS011;6039;52.576;13.348;2023-05-10T06:06:19;4.00;;;3.20;;
11957;SDS011;6039;52.576;13.348;2023-05-10T06:11:25;4.43;;;3.10;;
11957;SDS011;6039;52.576;13.348;2023-05-10T06:16:30;4.50;;;2.47;;
11957;SDS011;6039;52.576;13.348;2023-05-10T06:21:34;6.20;;;3.10;;
11957;SDS011;6039;52.576;13.348;2023-05-10T06:26:41;6.67;;;2.80;;
11957;SDS011;6039;52.576;13.348;2023-05-10T06:31:45;3.70;;;2.63;;
11957;SDS011;6039;52.576;13.348;2023-05-10T06:36:49;3.40;;;2.23;;
11957;SDS011;6039;52.576;13.348;2023-05-10T06:41:55;4.20;;;2.50;;
11957;SDS011;6039;52.576;13.348;2023-05-10T06:46:59;4.60;;;2.77;;
11957;SDS011;6039;52.576;13.348;2023-05-10T06:52:03;5.37;;;2.50;;
11957;SDS011;6039;52.576;13.348;2023-05-10T06:57:10;4.23;;;2.57;;
11957;SDS011;6039;52.576;13.348;2023-05-10T07:02:14;3.00;;;2.33;;
11957;SDS011;6039;52.576;13.348;2023-05-10T07:07:18;2.90;;;2.50;;
11957;SDS011;6039;52.576;13.348;2023-05-10T07:12:24;2.40;;;2.10;;
11957;SDS011;6039;52.576;13.348;2023-05-10T07:17:28;6.37;;;2.37;;
11957;SDS011;6039;52.576;13.348;2023-05-10T07:22:33;2.63;;;2.10;;
11957;SDS011;6039;52.576;13.348;2023-05-10T07:27:39;5.73;;;2.30;;
11957;SDS011;6039;52.576;13.348;2023-05-10T07:32:43;3.43;;;2.30;;
11957;SDS011;6039;52.576;13.348;2023-05-10T07:37:47;2.67;;;2.10;;
11957;SDS011;6039;52.576;13.348;2023-05-10T07:42:54;3.53;;;2.40;;
11957;SDS011;6039;52.576;13.348;2023-05-10T07:47:58;3.10;;;2.33;;
11957;SDS011;6039;52.576;13.348;2023-05-10T07:53:02;2.42;;;2.20;;
11957;SDS011;6039;52.576;13.348;2023-05-10T07:58:09;3.13;;;2.10;;
11957;SDS011;6039;52.576;13.348;2023-05-10T08:03:13;2.60;;;2.17;;
11957;SDS011;6039;52.576;13.348;2023-05-10T08:08:17;3.65;;;2.50;;
11957;SDS011;6039;52.576;13.348;2023-05-10T08:13:25;2.33;;;2.08;;
11957;SDS011;6039;52.576;13.348;2023-05-10T08:18:29;3.03;;;2.50;;
11957;SDS011;6039;52.576;13.348;2023-05-10T08:23:33;3.03;;;2.30;;
11957;SDS011;6039;52.576;13.348;2023-05-10T08:28:40;2.80;;;2.35;;
11957;SDS011;6039;52.576;13.348;2023-05-10T08:33:43;2.33;;;1.92;;
11957;SDS011;6039;52.576;13.348;2023-05-10T08:38:49;3.72;;;2.22;;
11957;SDS011;6039;52.576;13.348;2023-05-10T08:43:56;2.80;;;2.33;;
11957;SDS011;6039;52.576;13.348;2023-05-10T08:49:01;3.67;;;2.37;;
11957;SDS011;6039;52.576;13.348;2023-05-10T08:54:06;2.85;;;2.20;;
11957;SDS011;6039;52.576;13.348;2023-05-10T08:59:13;2.50;;;2.30;;
11957;SDS011;6039;52.576;13.348;2023-05-10T09:04:17;2.95;;;2.40;;
11957;SDS011;6039;52.576;13.348;2023-05-10T09:09:21;2.97;;;2.45;;
11957;SDS011;6039;52.576;13.348;2023-05-10T09:14:28;2.90;;;2.30;;
11957;SDS011;6039;52.576;13.348;2023-05-10T09:19:32;2.60;;;2.20;;
11957;SDS011;6039;52.576;13.348;2023-05-10T09:24:36;2.75;;;2.15;;
11957;SDS011;6039;52.576;13.348;2023-05-10T09:29:47;4.00;;;2.35;;
11957;SDS011;6039;52.576;13.348;2023-05-10T09:34:54;2.67;;;2.10;;
11957;SDS011;6039;52.576;13.348;2023-05-10T09:39:58;2.75;;;2.25;;
11957;SDS011;6039;52.576;13.348;2023-05-10T09:45:06;2.45;;;2.08;;
11957;SDS011;6039;52.576;13.348;2023-05-10T09:50:11;3.38;;;2.65;;
11957;SDS011;6039;52.576;13.348;2023-05-10T09:55:15;3.88;;;2.58;;
11957;SDS011;6039;52.576;13.348;2023-05-10T10:00:22;2.83;;;2.35;;
11957;SDS011;6039;52.576;13.348;2023-05-10T10:05:29;2.75;;;2.17;;
11957;SDS011;6039;52.576;13.348;2023-05-10T10:10:33;4.72;;;2.67;;
11957;SDS011;6039;52.576;13.348;2023-05-10T10:15:41;2.20;;;2.00;;
11957;SDS011;6039;52.576;13.348;2023-05-10T10:20:51;3.40;;;2.40;;
11957;SDS011;6039;52.576;13.348;2023-05-10T10:25:56;2.50;;;2.25;;
11957;SDS011;6039;52.576;13.348;2023-05-10T10:31:11;3.22;;;2.28;;
11957;SDS011;6039;52.576;13.348;2023-05-10T10:36:18;2.33;;;2.13;;
11957;SDS011;6039;52.576;13.348;2023-05-10T10:41:27;2.25;;;2.00;;
11957;SDS011;6039;52.576;13.348;2023-05-10T10:46:34;3.05;;;2.40;;
11957;SDS011;6039;52.576;13.348;2023-05-10T10:57:30;2.42;;;2.05;;
11957;SDS011;6039;52.576;13.348;2023-05-10T11:02:45;5.63;;;2.30;;
11957;SDS011;6039;52.576;13.348;2023-05-10T11:07:51;2.30;;;2.10;;
11957;SDS011;6039;52.576;13.348;2023-05-10T11:13:01;4.18;;;2.58;;
11957;SDS011;6039;52.576;13.348;2023-05-10T11:18:21;2.40;;;2.20;;
11957;SDS011;6039;52.576;13.348;2023-05-10T11:23:30;2.97;;;2.28;;
11957;SDS011;6039;52.576;13.348;2023-05-10T11:28:40;2.88;;;2.40;;
11957;SDS011;6039;52.576;13.348;2023-05-10T11:33:47;2.42;;;2.17;;
11957;SDS011;6039;52.576;13.348;2023-05-10T11:38:52;2.40;;;2.20;;
11957;SDS011;6039;52.576;13.348;2023-05-10T11:43:57;2.90;;;2.40;;
11957;SDS011;6039;52.576;13.348;2023-05-10T11:49:04;3.85;;;2.53;;
11957;SDS011;6039;52.576;13.348;2023-05-10T11:54:08;2.40;;;2.10;;
11957;SDS011;6039;52.576;13.348;2023-05-10T11:59:13;5.07;;;2.50;;
11957;SDS011;6039;52.576;13.348;2023-05-10T12:04:20;4.05;;;2.28;;
11957;SDS011;6039;52.576;13.348;2023-05-10T12:09:24;3.72;;;3.08;;
11957;SDS011;6039;52.576;13.348;2023-05-10T12:14:28;2.42;;;2.22;;
11957;SDS011;6039;52.576;13.348;2023-05-10T12:19:39;4.20;;;2.17;;
11957;SDS011;6039;52.576;13.348;2023-05-10T12:24:45;2.93;;;2.30;;
11957;SDS011;6039;52.576;13.348;2023-05-10T12:29:49;4.47;;;2.20;;
11957;SDS011;6039;52.576;13.348;2023-05-10T12:34:57;3.25;;;2.15;;
11957;SDS011;6039;52.576;13.348;2023-05-10T12:40:01;2.40;;;2.20;;
11957;SDS011;6039;52.576;13.348;2023-05-10T12:45:06;2.75;;;2.42;;
11957;SDS011;6039;52.576;13.348;2023-05-10T12:50:13;4.33;;;2.43;;
11957;SDS011;6039;52.576;13.348;2023-05-10T12:55:17;2.20;;;2.00;;
11957;SDS011;6039;52.576;13.348;2023-05-10T13:00:21;2.67;;;2.20;;
11957;SDS011;6039;52.576;13.348;2023-05-10T13:05:28;2.27;;;2.07;;
11957;SDS011;6039;52.576;13.348;2023-05-10T13:10:32;2.50;;;2.30;;
11957;SDS011;6039;52.576;13.348;2023-05-10T13:15:36;2.20;;;2.00;;
11957;SDS011;6039;52.576;13.348;2023-05-10T13:20:42;2.50;;;2.30;;
11957;SDS011;6039;52.576;13.348;2023-05-10T13:25:46;2.10;;;1.90;;
11957;SDS011;6039;52.576;13.348;2023-05-10T13:30:50;2.35;;;2.10;;
11957;SDS011;6039;52.576;13.348;2023-05-10T13:35:57;3.45;;;2.25;;
11957;SDS011;6039;52.576;13.348;2023-05-10T13:41:01;2.08;;;1.88;;
11957;SDS011;6039;52.576;13.348;2023-05-10T13:46:05;4.90;;;2.50;;
11957;SDS011;6039;52.576;13.348;2023-05-10T13:51:12;4.20;;;2.20;;
11957;SDS011;6039;52.576;13.348;2023-05-10T13:56:16;5.45;;;2.53;;
11957;SDS011;6039;52.576;13.348;2023-05-10T14:01:20;2.65;;;2.10;;
11957;SDS011;6039;52.576;13.348;2023-05-10T14:06:27;2.60;;;2.17;;
11957;SDS011;6039;52.576;13.348;2023-05-10T14:11:30;2.85;;;2.35;;
11957;SDS011;6039;52.576;13.348;2023-05-10T14:16:34;3.05;;;2.35;;
11957;SDS011;6039;52.576;13.348;2023-05-10T14:21:41;3.00;;;2.20;;
11957;SDS011;6039;52.576;13.348;2023-05-10T14:26:45;2.13;;;1.90;;
11957;SDS011;6039;52.576;13.348;2023-05-10T14:31:53;3.50;;;2.10;;
11957;SDS011;6039;52.576;13.348;2023-05-10T14:37:00;2.30;;;1.90;;
11957;SDS011;6039;52.576;13.348;2023-05-10T14:42:04;2.43;;;2.23;;
11957;SDS011;6039;52.576;13.348;2023-05-10T14:47:08;2.87;;;2.00;;
11957;SDS011;6039;52.576;13.348;2023-05-10T14:52:15;2.50;;;1.87;;
11957;SDS011;6039;52.576;13.348;2023-05-10T14:57:19;2.13;;;1.80;;
11957;SDS011;6039;52.576;13.348;2023-05-10T15:02:23;2.03;;;1.80;;
11957;SDS011;6039;52.576;13.348;2023-05-10T15:07:29;2.10;;;1.90;;
11957;SDS011;6039;52.576;13.348;2023-05-10T15:12:33;2.30;;;2.00;;
11957;SDS011;6039;52.576;13.348;2023-05-10T15:17:37;3.93;;;2.13;;
11957;SDS011;6039;52.576;13.348;2023-05-10T15:22:44;3.80;;;2.10;;
11957;SDS011;6039;52.576;13.348;2023-05-10T15:27:48;2.70;;;2.10;;
11957;SDS011;6039;52.576;13.348;2023-05-10T15:32:53;2.67;;;2.20;;
11957;SDS011;6039;52.576;13.348;2023-05-10T15:38:00;3.70;;;2.23;;
11957;SDS011;6039;52.576;13.348;2023-05-10T15:43:04;2.75;;;2.17;;
11957;SDS011;6039;52.576;13.348;2023-05-10T15:48:08;2.97;;;2.13;;
11957;SDS011;6039;52.576;13.348;2023-05-10T15:53:17;2.70;;;2.07;;
11957;SDS011;6039;52.576;13.348;2023-05-10T15:58:21;2.27;;;2.00;;
11957;SDS011;6039;52.576;13.348;2023-05-10T16:03:25;2.30;;;2.10;;
11957;SDS011;6039;52.576;13.348;2023-05-10T16:08:32;3.77;;;2.10;;
11957;SDS011;6039;52.576;13.348;2023-05-10T16:13:36;2.53;;;2.10;;
11957;SDS011;6039;52.576;13.348;2023-05-10T16:18:40;2.20;;;1.97;;
11957;SDS011;6039;52.576;13.348;2023-05-10T16:23:46;5.37;;;2.50;;
11957;SDS011;6039;52.576;13.348;2023-05-10T16:28:50;2.63;;;2.17;;
11957;SDS011;6039;52.576;13.348;2023-05-10T16:33:54;2.40;;;2.20;;
11957;SDS011;6039;52.576;13.348;2023-05-10T16:39:01;3.67;;;3.10;;
11957;SDS011;6039;52.576;13.348;2023-05-10T16:44:05;5.10;;;3.80;;
11957;SDS011;6039;52.576;13.348;2023-05-10T16:49:09;4.93;;;3.97;;
11957;SDS011;6039;52.576;13.348;2023-05-10T16:54:16;5.73;;;4.17;;
11957;SDS011;6039;52.576;13.348;2023-05-10T16:59:20;4.67;;;3.70;;
11957;SDS011;6039;52.576;13.348;2023-05-10T17:04:24;4.67;;;4.03;;
11957;SDS011;6039;52.576;13.348;2023-05-10T17:09:31;5.10;;;4.17;;
11957;SDS011;6039;52.576;13.348;2023-05-10T17:14:35;8.37;;;4.57;;
11957;SDS011;6039;52.576;13.348;2023-05-10T17:19:39;4.97;;;3.90;;
11957;SDS011;6039;52.576;13.348;2023-05-10T17:24:47;5.03;;;4.10;;
11957;SDS011;6039;52.576;13.348;2023-05-10T17:29:54;5.80;;;4.47;;
11957;SDS011;6039;52.576;13.348;2023-05-10T17:34:58;5.53;;;3.83;;
11957;SDS011;6039;52.576;13.348;2023-05-10T17:40:07;4.77;;;4.20;;
11957;SDS011;6039;52.576;13.348;2023-05-10T17:45:12;4.70;;;4.10;;
11957;SDS011;6039;52.576;13.348;2023-05-10T17:50:16;5.37;;;3.87;;
11957;SDS011;6039;52.576;13.348;2023-05-10T17:55:22;4.37;;;3.90;;
11957;SDS011;6039;52.576;13.348;2023-05-10T18:00:29;4.80;;;3.90;;
11957;SDS011;6039;52.576;13.348;2023-05-10T18:05:34;5.07;;;3.83;;
11957;SDS011;6039;52.576;13.348;2023-05-10T18:10:41;6.07;;;4.60;;
11957;SDS011;6039;52.576;13.348;2023-05-10T18:15:45;4.90;;;4.13;;
11957;SDS011;6039;52.576;13.348;2023-05-10T18:20:49;5.87;;;4.03;;
11957;SDS011;6039;52.576;13.348;2023-05-10T18:25:59;4.57;;;3.97;;
11957;SDS011;6039;52.576;13.348;2023-05-10T18:31:03;3.87;;;3.23;;
11957;SDS011;6039;52.576;13.348;2023-05-10T18:36:07;6.10;;;4.43;;
11957;SDS011;6039;52.576;13.348;2023-05-10T18:41:14;5.67;;;3.83;;
11957;SDS011;6039;52.576;13.348;2023-05-10T18:46:18;5.50;;;3.90;;
11957;SDS011;6039;52.576;13.348;2023-05-10T18:51:22;5.03;;;4.20;;
11957;SDS011;6039;52.576;13.348;2023-05-10T18:56:31;5.77;;;4.57;;
11957;SDS011;6039;52.576;13.348;2023-05-10T19:01:35;8.00;;;4.67;;
11957;SDS011;6039;52.576;13.348;2023-05-10T19:06:39;5.43;;;4.13;;
11957;SDS011;6039;52.576;13.348;2023-05-10T19:11:46;4.60;;;4.03;;
11957;SDS011;6039;52.576;13.348;2023-05-10T19:16:50;5.93;;;4.40;;
11957;SDS011;6039;52.576;13.348;2023-05-10T19:21:54;7.17;;;4.40;;
11957;SDS011;6039;52.576;13.348;2023-05-10T19:27:00;5.30;;;4.03;;
11957;SDS011;6039;52.576;13.348;2023-05-10T19:32:04;6.40;;;4.47;;
11957;SDS011;6039;52.576;13.348;2023-05-10T19:37:10;5.93;;;4.90;;
11957;SDS011;6039;52.576;13.348;2023-05-10T19:42:16;5.53;;;4.17;;
11957;SDS011;6039;52.576;13.348;2023-05-10T19:47:21;5.77;;;4.90;;
11957;SDS011;6039;52.576;13.348;2023-05-10T19:52:25;7.43;;;4.93;;
11957;SDS011;6039;52.576;13.348;2023-05-10T19:57:32;5.87;;;4.90;;
11957;SDS011;6039;52.576;13.348;2023-05-10T20:02:36;8.80;;;5.53;;
11957;SDS011;6039;52.576;13.348;2023-05-10T20:07:40;7.07;;;4.90;;
11957;SDS011;6039;52.576;13.348;2023-05-10T20:12:47;9.93;;;6.13;;
11957;SDS011;6039;52.576;13.348;2023-05-10T20:17:52;6.87;;;4.90;;
11957;SDS011;6039;52.576;13.348;2023-05-10T20:22:56;6.50;;;5.10;;
11957;SDS011;6039;52.576;13.348;2023-05-10T20:28:03;6.10;;;4.63;;
11957;SDS011;6039;52.576;13.348;2023-05-10T20:33:09;6.97;;;5.30;;
11957;SDS011;6039;52.576;13.348;2023-05-10T20:38:14;8.13;;;5.43;;
11957;SDS011;6039;52.576;13.348;2023-05-10T20:43:21;7.97;;;5.67;;
11957;SDS011;6039;52.576;13.348;2023-05-10T20:48:25;7.80;;;5.60;;
11957;SDS011;6039;52.576;13.348;2023-05-10T20:53:29;6.27;;;4.83;;
11957;SDS011;6039;52.576;13.348;2023-05-10T20:58:35;8.97;;;5.57;;
11957;SDS011;6039;52.576;13.348;2023-05-10T21:03:40;7.67;;;5.93;;
11957;SDS011;6039;52.576;13.348;2023-05-10T21:08:43;8.17;;;5.47;;
11957;SDS011;6039;52.576;13.348;2023-05-10T21:13:50;6.73;;;5.53;;
11957;SDS011;6039;52.576;13.348;2023-05-10T21:18:54;7.13;;;5.80;;
11957;SDS011;6039;52.576;13.348;2023-05-10T21:23:58;8.97;;;5.93;;
11957;SDS011;6039;52.576;13.348;2023-05-10T21:29:04;7.00;;;5.60;;
11957;SDS011;6039;52.576;13.348;2023-05-10T21:34:08;8.13;;;5.73;;
11957;SDS011;6039;52.576;13.348;2023-05-10T21:39:13;9.33;;;6.50;;
11957;SDS011;6039;52.576;13.348;2023-05-10T21:44:19;8.23;;;5.77;;
11957;SDS011;6039;52.576;13.348;2023-05-10T21:49:23;8.37;;;5.87;;
11957;SDS011;6039;52.576;13.348;2023-05-10T21:54:27;9.37;;;6.57;;
11957;SDS011;6039;52.576;13.348;2023-05-10T21:59:34;7.70;;;6.23;;
11957;SDS011;6039;52.576;13.348;2023-05-10T22:04:37;8.73;;;6.57;;
11957;SDS011;6039;52.576;13.348;2023-05-10T22:09:41;9.17;;;7.03;;
11957;SDS011;6039;52.576;13.348;2023-05-10T22:14:48;8.43;;;6.17;;
11957;SDS011;6039;52.576;13.348;2023-05-10T22:19:52;7.93;;;6.43;;
11957;SDS011;6039;52.576;13.348;2023-05-10T22:24:56;8.70;;;7.03;;
11957;SDS011;6039;52.576;13.348;2023-05-10T22:30:02;9.83;;;7.33;;
11957;SDS011;6039;52.576;13.348;2023-05-10T22:35:08;9.90;;;7.20;;
11957;SDS011;6039;52.576;13.348;2023-05-10T22:40:12;11.93;;;7.03;;
11957;SDS011;6039;52.576;13.348;2023-05-10T22:45:19;8.53;;;7.03;;
11957;SDS011;6039;52.576;13.348;2023-05-10T22:50:23;10.10;;;6.73;;
11957;SDS011;6039;52.576;13.348;2023-05-10T22:55:28;9.97;;;7.47;;
11957;SDS011;6039;52.576;13.348;2023-05-10T23:00:35;8.63;;;6.53;;
11957;SDS011;6039;52.576;13.348;2023-05-10T23:05:39;11.10;;;7.27;;
11957;SDS011;6039;52.576;13.348;2023-05-10T23:10:43;8.60;;;6.73;;
11957;SDS011;6039;52.576;13.348;2023-05-10T23:15:49;10.57;;;7.67;;
11957;SDS011;6039;52.576;13.348;2023-05-10T23:20:53;9.03;;;6.93;;
11957;SDS011;6039;52.576;13.348;2023-05-10T23:25:57;8.83;;;6.57;;
11957;SDS011;6039;52.576;13.348;2023-05-10T23:31:05;9.07;;;6.83;;
11957;SDS011;6039;52.576;13.348;2023-05-10T23:36:09;9.80;;;6.63;;
11957;SDS011;6039;52.576;13.348;2023-05-10T23:41:13;9.63;;;7.10;;
11957;SDS011;6039;52.576;13.348;2023-05-10T23:46:20;9.57;;;7.40;;
11957;SDS011;6039;52.576;13.348;2023-05-10T23:51:24;8.57;;;6.63;;
11957;SDS011;6039;52.576;13.348;2023-05-10T23:56:28;8.53;;;6.63;;
